Time;durP1;ratioP1;P1;durP2;ratioP2;P2;SDS_P1;SDS_P2;PMS_P1;PMS_P2;Temp;Humidity;BMP_temperature;BMP_pressure;BME280_temperature;BME280_humidity;BME280_pressure;Samples;Min_cycle;Max_cycle;Signal;HPM_P1;HPM_P2
2023/05/12 00:00:46;;;;;;;2.80;1.53;;;11.80;65.50;;;;;;5081231;28;46336;-65
2023/05/12 00:03:12;;;;;;;2.10;1.40;;;11.80;66.90;;;;;;5077583;28;46411;-65
2023/05/12 00:05:38;;;;;;;2.10;1.40;;;11.80;65.50;;;;;;5081553;28;46425;-65
2023/05/12 00:08:04;;;;;;;3.20;1.60;;;11.70;65.50;;;;;;5081200;28;46461;-65
2023/05/12 00:10:29;;;;;;;2.90;1.63;;;11.80;65.80;;;;;;5080747;28;47277;-65
2023/05/12 00:12:55;;;;;;;2.23;1.40;;;11.80;65.90;;;;;;5076210;28;46403;-64
2023/05/12 00:15:21;;;;;;;2.00;1.50;;;11.80;65.80;;;;;;5080245;28;45815;-64
2023/05/12 00:17:47;;;;;;;2.70;1.70;;;11.70;65.30;;;;;;5080527;28;46535;-65
2023/05/12 00:20:12;;;;;;;3.40;1.80;;;11.80;65.60;;;;;;5080798;28;47255;-65
2023/05/12 00:22:38;;;;;;;2.27;1.70;;;11.70;65.60;;;;;;5079927;28;46430;-65
2023/05/12 00:25:04;;;;;;;2.93;1.90;;;11.70;66.00;;;;;;5081142;27;46384;-65
2023/05/12 00:27:30;;;;;;;2.67;2.00;;;11.60;65.90;;;;;;5079487;28;46523;-65
2023/05/12 00:29:57;;;;;;;5.07;1.80;;;11.60;65.90;;;;;;5080238;28;47318;-65
2023/05/12 00:32:23;;;;;;;3.20;2.00;;;11.60;65.80;;;;;;5081728;28;46568;-65
2023/05/12 00:34:49;;;;;;;2.77;1.80;;;11.50;65.80;;;;;;5078870;28;46375;-65
2023/05/12 00:37:15;;;;;;;3.93;1.80;;;11.50;65.80;;;;;;5080770;28;46314;-65
2023/05/12 00:39:41;;;;;;;7.07;2.73;;;11.50;65.80;;;;;;5072628;28;46268;-65
2023/05/12 00:42:07;;;;;;;6.97;2.40;;;11.50;65.80;;;;;;5081529;28;46330;-66
2023/05/12 00:44:32;;;;;;;3.60;2.57;;;11.50;65.80;;;;;;5080604;28;45757;-65
2023/05/12 00:46:58;;;;;;;7.83;3.47;;;11.50;65.80;;;;;;5080483;28;46346;-66
2023/05/12 00:49:26;;;;;;;3.50;2.60;;;11.50;65.80;;;;;;5078713;28;46465;-65
2023/05/12 00:51:54;;;;;;;3.97;3.17;;;11.40;65.70;;;;;;5082366;28;45778;-64
2023/05/12 00:54:21;;;;;;;4.73;3.27;;;11.40;65.80;;;;;;5079160;28;46419;-65
2023/05/12 00:56:46;;;;;;;3.97;2.87;;;11.40;65.80;;;;;;5082200;28;46313;-65
2023/05/12 00:59:12;;;;;;;6.03;3.20;;;11.40;65.80;;;;;;5078963;28;46961;-65
2023/05/12 01:01:38;;;;;;;3.77;2.93;;;11.40;65.90;;;;;;5080633;28;46398;-65
2023/05/12 01:04:04;;;;;;;4.30;2.93;;;11.30;65.80;;;;;;5080322;28;46367;-65
2023/05/12 01:06:51;;;;;;;4.00;3.10;;;11.30;65.80;;;;;;5076002;28;46456;-65
2023/05/12 01:09:18;;;;;;;4.10;2.80;;;11.40;65.70;;;;;;5081165;28;46542;-64
2023/05/12 01:11:43;;;;;;;5.50;3.80;;;11.30;65.70;;;;;;5078622;28;46470;-64
2023/05/12 01:14:09;;;;;;;4.37;3.60;;;11.40;65.80;;;;;;5076284;28;46447;-65
2023/05/12 01:16:41;;;;;;;6.30;3.87;;;11.30;65.60;;;;;;5078977;28;46452;-65
2023/05/12 01:19:21;;;;;;;5.67;3.70;;;11.30;65.90;;;;;;5078372;28;47317;-65
2023/05/12 01:21:47;;;;;;;7.30;4.27;;;11.30;66.00;;;;;;5079949;28;46472;-64
2023/05/12 01:24:14;;;;;;;6.40;4.47;;;11.30;66.10;;;;;;5079909;28;46395;-65
2023/05/12 01:26:40;;;;;;;5.63;4.00;;;11.30;66.30;;;;;;5079569;28;46646;-65
2023/05/12 01:29:06;;;;;;;5.47;3.90;;;11.20;66.20;;;;;;5079873;28;46661;-65
2023/05/12 01:31:32;;;;;;;7.00;4.83;;;11.30;66.20;;;;;;5080180;28;46439;-64
2023/05/12 01:33:57;;;;;;;5.80;4.10;;;11.20;66.10;;;;;;5079182;28;46357;-65
2023/05/12 01:36:23;;;;;;;7.23;3.77;;;11.20;66.30;;;;;;5080005;28;46548;-65
2023/05/12 01:38:49;;;;;;;7.67;3.47;;;11.20;66.30;;;;;;5080193;28;46382;-65
2023/05/12 01:41:15;;;;;;;7.50;4.10;;;11.30;66.40;;;;;;5078499;28;46379;-64
2023/05/12 01:43:40;;;;;;;7.20;3.33;;;11.30;66.40;;;;;;5080527;28;46016;-65
2023/05/12 01:46:06;;;;;;;9.17;3.40;;;11.30;66.40;;;;;;5080539;28;46576;-64
2023/05/12 01:48:32;;;;;;;4.30;3.40;;;11.30;66.30;;;;;;5078813;28;47169;-65
2023/05/12 01:50:59;;;;;;;4.93;3.90;;;11.30;66.50;;;;;;5077294;28;46378;-64
2023/05/12 01:53:25;;;;;;;4.90;3.90;;;11.30;66.50;;;;;;5079844;28;46268;-65
2023/05/12 01:55:51;;;;;;;6.87;3.57;;;11.30;66.40;;;;;;5081609;28;46412;-65
2023/05/12 01:58:18;;;;;;;4.67;3.60;;;11.30;66.60;;;;;;5079480;28;46989;-64
2023/05/12 02:00:43;;;;;;;5.40;3.90;;;11.30;66.60;;;;;;5081128;28;46476;-66
2023/05/12 02:03:09;;;;;;;5.60;4.10;;;11.30;66.40;;;;;;5073707;28;45864;-66
2023/05/12 02:05:35;;;;;;;5.67;3.80;;;11.30;66.50;;;;;;5078295;28;46438;-66
2023/05/12 02:08:00;;;;;;;10.20;3.90;;;11.30;66.40;;;;;;5078411;28;48051;-65
2023/05/12 02:10:26;;;;;;;7.73;4.60;;;11.30;66.40;;;;;;5081347;28;46277;-65
2023/05/12 02:12:52;;;;;;;5.73;4.33;;;11.30;66.50;;;;;;5078757;28;46451;-64
2023/05/12 02:15:18;;;;;;;10.13;4.80;;;11.40;66.50;;;;;;5079857;28;46438;-65
2023/05/12 02:17:43;;;;;;;9.70;4.77;;;11.40;66.50;;;;;;5078569;28;47044;-64
2023/05/12 02:20:10;;;;;;;10.00;4.97;;;11.40;66.40;;;;;;5078479;28;46589;-65
2023/05/12 02:22:36;;;;;;;7.03;4.60;;;11.40;66.50;;;;;;5079256;28;46389;-65
2023/05/12 02:25:02;;;;;;;5.67;4.47;;;11.40;66.60;;;;;;5073124;28;46457;-65
2023/05/12 02:27:27;;;;;;;7.10;5.30;;;11.40;66.60;;;;;;5079463;28;46454;-65
2023/05/12 02:29:53;;;;;;;9.00;5.17;;;11.40;66.80;;;;;;5078885;28;46526;-65
2023/05/12 02:32:18;;;;;;;6.57;4.63;;;11.40;66.80;;;;;;5078143;28;46442;-66
2023/05/12 02:34:44;;;;;;;6.43;4.77;;;11.40;67.00;;;;;;5075987;28;45971;-65
2023/05/12 02:37:10;;;;;;;7.83;3.93;;;11.40;67.00;;;;;;5075615;28;46630;-65
2023/05/12 02:39:35;;;;;;;12.20;5.50;;;11.40;66.90;;;;;;5076329;28;46446;-65
2023/05/12 02:42:01;;;;;;;6.37;5.03;;;11.40;67.10;;;;;;5077309;28;46385;-65
2023/05/12 02:44:27;;;;;;;6.80;5.17;;;11.30;67.00;;;;;;5079622;28;46487;-66
2023/05/12 02:46:52;;;;;;;6.80;4.67;;;11.40;67.10;;;;;;5080204;28;46372;-64
2023/05/12 02:49:18;;;;;;;6.67;4.60;;;11.40;66.90;;;;;;5078762;28;46602;-64
2023/05/12 02:51:43;;;;;;;7.50;5.10;;;11.40;67.00;;;;;;5077731;28;46443;-64
2023/05/12 02:54:09;;;;;;;7.23;5.33;;;11.40;67.00;;;;;;5075998;28;46374;-65
2023/05/12 02:56:35;;;;;;;8.27;4.63;;;11.40;67.10;;;;;;5080044;28;46494;-65
2023/05/12 02:59:00;;;;;;;6.80;5.07;;;11.40;67.10;;;;;;5078405;28;46983;-65
2023/05/12 03:01:26;;;;;;;8.33;5.83;;;11.40;67.00;;;;;;5080011;28;46481;-64
2023/05/12 03:03:51;;;;;;;7.50;5.43;;;11.50;67.00;;;;;;5078671;28;46589;-64
2023/05/12 03:06:17;;;;;;;7.20;4.80;;;11.50;66.80;;;;;;5081037;28;47371;-65
2023/05/12 03:08:42;;;;;;;8.23;5.90;;;11.50;66.70;;;;;;5080983;28;46429;-64
2023/05/12 03:11:08;;;;;;;8.30;6.37;;;11.50;66.80;;;;;;5083269;28;46339;-65
2023/05/12 03:13:34;;;;;;;9.70;6.90;;;11.50;67.00;;;;;;5082011;28;46536;-65
2023/05/12 03:16:00;;;;;;;10.50;6.47;;;11.50;67.10;;;;;;5081519;28;46425;-65
2023/05/12 03:18:27;;;;;;;8.40;6.23;;;11.50;67.00;;;;;;5082229;28;46429;-66
2023/05/12 03:20:53;;;;;;;8.93;6.60;;;11.50;67.20;;;;;;5081876;28;46327;-65
2023/05/12 03:23:18;;;;;;;8.57;6.50;;;11.50;67.10;;;;;;5081811;28;46405;-65
2023/05/12 03:25:44;;;;;;;8.53;6.17;;;11.50;67.10;;;;;;5082200;28;46449;-66
2023/05/12 03:28:10;;;;;;;10.37;6.60;;;11.50;66.90;;;;;;5079400;28;46439;-65
2023/05/12 03:30:35;;;;;;;8.17;6.20;;;11.50;67.00;;;;;;5080149;28;46366;-66
2023/05/12 03:33:01;;;;;;;8.30;6.17;;;11.50;67.20;;;;;;5080094;28;46573;-65
2023/05/12 03:35:26;;;;;;;7.83;6.53;;;11.40;67.40;;;;;;5082502;28;47077;-64
2023/05/12 03:37:52;;;;;;;8.20;6.50;;;11.40;67.60;;;;;;5079918;28;46536;-65
2023/05/12 03:40:18;;;;;;;7.40;6.07;;;11.40;67.60;;;;;;5078074;28;45878;-65
2023/05/12 03:42:44;;;;;;;7.20;5.90;;;11.40;67.60;;;;;;5082392;28;46507;-64
2023/05/12 03:45:11;;;;;;;8.17;6.37;;;11.50;67.60;;;;;;5079089;28;46714;-65
2023/05/12 03:47:39;;;;;;;7.57;6.40;;;11.50;67.50;;;;;;5082431;28;46375;-65
2023/05/12 03:50:05;;;;;;;8.70;6.83;;;11.50;67.40;;;;;;5079254;28;46444;-67
2023/05/12 03:52:31;;;;;;;9.90;6.80;;;11.50;67.50;;;;;;5081323;28;46448;-65
2023/05/12 03:54:56;;;;;;;7.77;6.10;;;11.50;67.60;;;;;;5079818;28;46050;-65
2023/05/12 03:57:22;;;;;;;8.20;6.60;;;11.50;67.50;;;;;;5082365;28;46444;-64
2023/05/12 03:59:47;;;;;;;8.50;6.20;;;11.50;67.40;;;;;;5081514;28;46470;-65
2023/05/12 04:02:13;;;;;;;8.50;6.80;;;11.50;67.30;;;;;;5079828;28;46475;-65
2023/05/12 04:04:39;;;;;;;11.00;6.93;;;11.50;67.40;;;;;;5082955;28;46286;-65
2023/05/12 04:07:04;;;;;;;11.07;6.60;;;11.50;67.40;;;;;;5080050;28;46408;-65
2023/05/12 04:09:31;;;;;;;10.43;6.50;;;11.50;67.30;;;;;;5082776;28;46384;-65
2023/05/12 04:11:57;;;;;;;8.00;5.77;;;11.60;67.20;;;;;;5078754;28;46357;-65
2023/05/12 04:14:23;;;;;;;7.50;5.40;;;11.60;67.30;;;;;;5080828;27;46387;-65
2023/05/12 04:16:49;;;;;;;8.47;6.57;;;11.60;67.40;;;;;;5078361;28;46412;-66
2023/05/12 04:19:14;;;;;;;6.87;5.50;;;11.60;67.20;;;;;;5081319;28;46411;-65
2023/05/12 04:21:40;;;;;;;7.77;5.93;;;11.60;67.20;;;;;;5081482;28;46458;-65
2023/05/12 04:24:05;;;;;;;7.60;6.30;;;11.60;67.20;;;;;;5080474;28;46686;-65
2023/05/12 04:26:31;;;;;;;7.20;5.90;;;11.60;67.10;;;;;;5081913;28;45810;-64
2023/05/12 04:28:57;;;;;;;8.13;6.33;;;11.60;67.00;;;;;;5079219;28;46345;-65
2023/05/12 04:31:22;;;;;;;7.10;5.63;;;11.60;67.00;;;;;;5082458;28;46389;-65
2023/05/12 04:33:48;;;;;;;7.07;5.77;;;11.60;67.10;;;;;;5082243;28;46433;-65
2023/05/12 04:36:14;;;;;;;8.80;6.20;;;11.60;67.00;;;;;;5078632;28;46345;-65
2023/05/12 04:38:40;;;;;;;8.17;6.23;;;11.70;67.00;;;;;;5081534;28;46125;-65
2023/05/12 04:41:06;;;;;;;6.90;5.90;;;11.70;67.00;;;;;;5081581;28;46389;-64
2023/05/12 04:43:32;;;;;;;8.73;5.77;;;11.70;66.80;;;;;;5080805;28;47004;-64
2023/05/12 04:45:57;;;;;;;7.80;6.30;;;11.80;66.50;;;;;;5081474;28;46245;-64
2023/05/12 04:48:23;;;;;;;8.53;6.60;;;11.80;66.20;;;;;;5080238;28;46379;-64
2023/05/12 04:50:49;;;;;;;8.20;6.57;;;11.90;66.30;;;;;;5082319;28;46366;-64
2023/05/12 04:53:15;;;;;;;6.60;5.40;;;11.90;66.20;;;;;;5076240;28;46511;-64
2023/05/12 04:55:41;;;;;;;10.70;5.77;;;12.00;66.30;;;;;;5080519;28;46848;-64
2023/05/12 04:58:07;;;;;;;8.93;5.10;;;12.00;66.30;;;;;;5082218;28;46542;-64
2023/05/12 05:00:33;;;;;;;6.77;4.90;;;12.10;66.40;;;;;;5078799;28;46526;-64
2023/05/12 05:02:59;;;;;;;6.07;4.60;;;12.10;66.40;;;;;;5081796;28;47128;-64
2023/05/12 05:05:24;;;;;;;4.97;4.30;;;12.10;66.30;;;;;;5079998;28;46613;-65
2023/05/12 05:07:50;;;;;;;6.07;4.60;;;12.10;66.40;;;;;;5080175;28;45837;-65
2023/05/12 05:10:16;;;;;;;8.40;4.20;;;12.10;66.40;;;;;;5081880;28;46602;-65
2023/05/12 05:12:41;;;;;;;5.80;4.10;;;12.10;66.40;;;;;;5078017;28;46246;-64
2023/05/12 05:15:08;;;;;;;8.60;4.90;;;12.20;66.40;;;;;;5073315;28;46385;-65
2023/05/12 05:17:34;;;;;;;5.87;4.63;;;12.10;66.40;;;;;;5075012;28;46503;-65
2023/05/12 05:20:00;;;;;;;6.20;5.10;;;12.20;66.40;;;;;;5075882;28;46416;-65
2023/05/12 05:22:26;;;;;;;5.80;4.80;;;12.30;65.90;;;;;;5079187;28;46338;-65
2023/05/12 05:24:51;;;;;;;7.53;4.23;;;12.30;66.90;;;;;;5073000;28;46744;-65
2023/05/12 05:27:17;;;;;;;5.53;4.40;;;12.30;65.40;;;;;;5074938;28;46472;-65
2023/05/12 05:29:43;;;;;;;5.50;4.00;;;12.30;65.40;;;;;;5076868;28;46326;-65
2023/05/12 05:32:08;;;;;;;6.40;4.20;;;12.30;65.20;;;;;;5076914;28;46267;-65
2023/05/12 05:34:34;;;;;;;5.20;4.03;;;12.30;65.20;;;;;;5078114;28;46480;-66
2023/05/12 05:36:59;;;;;;;5.17;4.23;;;12.40;65.30;;;;;;5075997;28;46559;-65
2023/05/12 05:39:25;;;;;;;5.00;4.00;;;12.40;65.20;;;;;;5079424;28;46012;-65
2023/05/12 05:41:50;;;;;;;5.03;3.70;;;12.50;65.00;;;;;;5076248;28;47083;-65
2023/05/12 05:44:16;;;;;;;5.50;4.43;;;12.60;64.80;;;;;;5077730;28;46398;-66
2023/05/12 05:46:42;;;;;;;6.30;3.87;;;12.60;64.60;;;;;;5079509;28;46437;-64
2023/05/12 05:49:08;;;;;;;6.23;5.00;;;12.60;64.60;;;;;;5077659;28;46527;-64
2023/05/12 05:51:33;;;;;;;7.33;3.67;;;12.70;64.50;;;;;;5077547;28;46444;-65
2023/05/12 05:53:59;;;;;;;4.73;3.50;;;12.70;64.20;;;;;;5076835;28;46824;-65
2023/05/12 05:56:24;;;;;;;5.63;3.80;;;12.80;63.80;;;;;;5080936;28;45867;-65
2023/05/12 05:58:50;;;;;;;4.30;3.53;;;12.90;63.90;;;;;;5075887;28;46193;-64
2023/05/12 06:01:15;;;;;;;5.00;2.97;;;12.90;63.70;;;;;;5077789;28;46345;-65
2023/05/12 06:03:41;;;;;;;10.30;2.97;;;12.90;63.70;;;;;;5076211;28;46374;-65
2023/05/12 06:06:07;;;;;;;4.17;3.33;;;13.10;63.60;;;;;;5078267;28;46349;-65
2023/05/12 06:08:32;;;;;;;4.93;3.33;;;13.20;63.30;;;;;;5079946;28;46641;-65
2023/05/12 06:10:58;;;;;;;5.37;2.90;;;13.40;62.60;;;;;;5080010;28;46371;-64
2023/05/12 06:13:23;;;;;;;4.37;3.27;;;13.60;62.00;;;;;;5079259;28;46411;-64
2023/05/12 06:15:49;;;;;;;5.20;3.10;;;14.00;61.30;;;;;;5080839;28;46476;-65
2023/05/12 06:18:15;;;;;;;5.37;2.93;;;14.40;60.50;;;;;;5079767;28;46415;-64
2023/05/12 06:20:41;;;;;;;7.23;3.23;;;14.80;59.90;;;;;;5078849;28;46240;-65
2023/05/12 06:23:06;;;;;;;5.47;2.80;;;15.00;58.70;;;;;;5077452;28;45855;-64
2023/05/12 06:25:32;;;;;;;4.23;2.73;;;15.30;57.90;;;;;;5080363;28;46441;-64
2023/05/12 06:27:57;;;;;;;3.70;3.10;;;15.60;58.00;;;;;;5078460;28;46604;-65
2023/05/12 06:30:23;;;;;;;3.53;2.73;;;15.80;57.00;;;;;;5075874;28;46372;-64
2023/05/12 06:32:49;;;;;;;5.37;3.13;;;15.90;56.30;;;;;;5078110;28;46432;-64
2023/05/12 06:35:14;;;;;;;5.53;3.43;;;15.90;55.90;;;;;;5078137;28;46421;-64
2023/05/12 06:37:40;;;;;;;5.80;3.20;;;16.00;55.50;;;;;;5082631;28;46414;-64
2023/05/12 06:40:06;;;;;;;5.13;3.40;;;16.20;55.00;;;;;;5087314;28;46404;-64
2023/05/12 06:42:32;;;;;;;6.33;4.93;;;16.20;54.40;;;;;;5076236;28;46345;-65
2023/05/12 06:44:59;;;;;;;6.93;4.50;;;16.20;53.80;;;;;;5080402;28;46487;-63
2023/05/12 06:47:25;;;;;;;7.47;5.60;;;16.10;53.50;;;;;;5083848;28;46353;-64
2023/05/12 06:49:50;;;;;;;7.90;5.60;;;16.20;53.10;;;;;;5075907;28;47193;-64
2023/05/12 06:52:16;;;;;;;9.17;6.90;;;16.10;53.10;;;;;;5076529;28;46338;-65
2023/05/12 06:54:42;;;;;;;8.30;6.10;;;16.10;53.10;;;;;;5078194;28;46256;-65
2023/05/12 06:57:08;;;;;;;8.60;6.40;;;16.00;53.10;;;;;;5077856;28;46629;-65
2023/05/12 06:59:35;;;;;;;10.03;6.57;;;15.90;53.00;;;;;;5078199;28;46498;-64
2023/05/12 07:02:00;;;;;;;7.80;5.63;;;15.90;52.80;;;;;;5075875;28;46372;-64
2023/05/12 07:04:26;;;;;;;8.83;5.80;;;15.90;52.60;;;;;;5078039;28;45807;-65
2023/05/12 07:06:52;;;;;;;10.23;7.60;;;15.80;52.70;;;;;;5078355;28;46397;-65
2023/05/12 07:09:18;;;;;;;8.93;6.03;;;15.70;52.90;;;;;;5079246;28;46390;-65
2023/05/12 07:11:43;;;;;;;7.20;5.70;;;15.70;52.70;;;;;;5077805;28;46463;-65
2023/05/12 07:14:09;;;;;;;8.13;5.90;;;15.60;52.40;;;;;;5076943;28;46447;-65
2023/05/12 07:16:34;;;;;;;9.53;6.77;;;15.50;52.30;;;;;;5078909;28;45920;-65
2023/05/12 07:19:00;;;;;;;8.27;5.97;;;15.30;52.40;;;;;;5077094;28;46172;-64
2023/05/12 07:21:27;;;;;;;12.03;6.83;;;15.20;52.70;;;;;;5080169;28;46374;-64
2023/05/12 07:23:52;;;;;;;10.57;6.43;;;15.10;52.60;;;;;;5077502;28;46459;-64
2023/05/12 07:26:18;;;;;;;9.13;5.70;;;15.20;52.60;;;;;;5079263;28;46661;-65
2023/05/12 07:28:44;;;;;;;8.80;5.73;;;15.30;52.40;;;;;;5081107;28;46900;-65
2023/05/12 07:31:09;;;;;;;9.13;6.33;;;15.40;52.60;;;;;;5084096;28;46431;-63
2023/05/12 07:33:36;;;;;;;15.43;9.30;;;15.40;52.50;;;;;;5084208;28;46160;-63
2023/05/12 07:36:03;;;;;;;10.77;6.20;;;15.50;52.00;;;;;;5085248;28;46542;-63
2023/05/12 07:38:29;;;;;;;9.13;6.53;;;15.60;51.50;;;;;;5082572;28;46336;-63
2023/05/12 07:40:54;;;;;;;11.00;7.30;;;15.60;51.00;;;;;;5078091;28;45835;-65
2023/05/12 07:43:20;;;;;;;8.60;6.93;;;15.60;50.40;;;;;;5079356;28;46432;-65
2023/05/12 07:45:45;;;;;;;8.90;7.00;;;15.70;50.00;;;;;;5077893;28;46429;-66
2023/05/12 07:48:11;;;;;;;11.10;6.57;;;15.80;49.70;;;;;;5076442;27;46949;-65
2023/05/12 07:50:37;;;;;;;10.03;7.00;;;15.70;49.80;;;;;;5077740;28;46441;-64
2023/05/12 07:53:03;;;;;;;11.60;6.93;;;15.60;50.00;;;;;;5080943;28;46471;-64
2023/05/12 07:55:29;;;;;;;8.80;6.03;;;15.40;50.80;;;;;;5082694;28;46332;-65
2023/05/12 07:57:54;;;;;;;9.10;6.50;;;15.40;51.20;;;;;;5081063;28;46419;-65
2023/05/12 08:00:20;;;;;;;8.87;6.20;;;15.50;50.50;;;;;;5079248;28;46483;-64
2023/05/12 08:02:46;;;;;;;8.30;6.10;;;15.80;49.50;;;;;;5082174;28;46424;-64
2023/05/12 08:05:11;;;;;;;8.80;6.23;;;15.90;49.10;;;;;;5079428;28;46384;-65
2023/05/12 08:07:38;;;;;;;10.00;6.47;;;15.60;49.30;;;;;;5080113;28;47216;-65
2023/05/12 08:10:05;;;;;;;9.00;7.20;;;15.50;49.80;;;;;;5081042;28;46485;-65
2023/05/12 08:12:31;;;;;;;10.50;6.47;;;15.40;50.00;;;;;;5080920;28;46500;-63
2023/05/12 08:14:57;;;;;;;9.40;7.00;;;15.30;50.20;;;;;;5080196;28;46531;-64
2023/05/12 08:17:22;;;;;;;11.00;6.23;;;15.20;50.40;;;;;;5087423;28;46431;-64
2023/05/12 08:19:48;;;;;;;11.53;6.17;;;15.50;49.70;;;;;;5082534;28;46385;-65
2023/05/12 08:22:13;;;;;;;10.73;7.00;;;15.60;49.10;;;;;;5079619;28;46484;-64
2023/05/12 08:24:39;;;;;;;9.73;7.23;;;15.50;49.50;;;;;;5081147;28;46502;-65
2023/05/12 08:27:05;;;;;;;7.70;6.43;;;15.30;50.10;;;;;;5080324;28;46562;-64
2023/05/12 08:29:30;;;;;;;10.07;7.80;;;15.30;50.30;;;;;;5082760;28;46358;-65
2023/05/12 08:31:57;;;;;;;11.60;7.83;;;15.20;50.00;;;;;;5079855;28;46535;-64
2023/05/12 08:34:26;;;;;;;9.23;6.97;;;15.30;49.80;;;;;;5078732;28;46418;-64
2023/05/12 08:36:52;;;;;;;12.07;7.90;;;15.20;49.70;;;;;;5078894;28;46251;-65
2023/05/12 08:39:18;;;;;;;13.30;7.03;;;15.20;49.60;;;;;;5080333;28;46281;-65
2023/05/12 08:42:05;;;;;;;10.10;7.57;;;15.20;49.90;;;;;;5079919;28;46329;-64
2023/05/12 08:44:32;;;;;;;12.73;7.90;;;15.20;49.90;;;;;;5082126;28;46352;-64
2023/05/12 08:47:00;;;;;;;9.87;7.03;;;15.30;49.60;;;;;;5080751;28;46130;-64
2023/05/12 08:49:28;;;;;;;8.90;6.93;;;15.40;48.80;;;;;;5080810;28;45769;-64
2023/05/12 08:51:55;;;;;;;10.80;7.80;;;15.70;48.30;;;;;;5081443;28;46423;-64
2023/05/12 08:54:22;;;;;;;13.10;7.67;;;15.60;48.10;;;;;;5082845;28;46604;-64
2023/05/12 08:56:51;;;;;;;11.87;8.33;;;15.70;47.90;;;;;;5082247;28;46541;-64
2023/05/12 08:59:17;;;;;;;9.40;6.27;;;15.80;47.60;;;;;;5078631;27;46372;-63
2023/05/12 09:01:46;;;;;;;8.30;6.07;;;16.10;47.00;;;;;;5079286;28;46547;-63
2023/05/12 09:04:14;;;;;;;12.43;6.60;;;16.40;46.00;;;;;;5078698;28;45952;-63
2023/05/12 09:06:41;;;;;;;7.53;6.00;;;16.60;45.20;;;;;;5079111;28;46453;-64
2023/05/12 09:09:06;;;;;;;8.60;6.30;;;16.70;45.00;;;;;;5080809;28;46281;-64
2023/05/12 09:11:32;;;;;;;5.93;4.43;;;17.00;44.90;;;;;;5079676;28;46290;-65
2023/05/12 09:14:08;;;;;;;8.60;6.13;;;17.30;42.90;;;;;;5077863;28;46237;-64
2023/05/12 09:16:40;;;;;;;9.10;5.37;;;17.20;42.70;;;;;;5080399;28;46290;-64
2023/05/12 09:19:05;;;;;;;7.20;5.90;;;17.40;42.60;;;;;;5079106;28;46273;-65
2023/05/12 09:21:32;;;;;;;9.00;4.70;;;17.60;42.20;;;;;;5079261;28;46450;-64
2023/05/12 09:23:59;;;;;;;8.30;5.77;;;17.90;41.20;;;;;;5077378;28;46425;-64
2023/05/12 09:26:26;;;;;;;7.60;5.43;;;18.00;40.80;;;;;;5081200;28;46401;-64
2023/05/12 09:28:53;;;;;;;8.80;6.30;;;18.00;40.30;;;;;;5073968;28;46504;-65
2023/05/12 09:31:23;;;;;;;8.80;6.80;;;18.30;39.20;;;;;;5078670;28;46619;-65
2023/05/12 09:33:50;;;;;;;7.17;5.23;;;18.20;38.80;;;;;;5075244;28;45976;-64
2023/05/12 09:36:23;;;;;;;6.40;4.40;;;18.30;38.40;;;;;;5077007;28;47245;-64
2023/05/12 09:39:03;;;;;;;8.60;6.47;;;18.40;37.40;;;;;;5079853;28;46506;-64
2023/05/12 09:41:29;;;;;;;7.77;5.13;;;18.50;36.70;;;;;;5077969;28;46421;-65
2023/05/12 09:43:55;;;;;;;6.50;4.40;;;18.40;37.00;;;;;;5078636;28;46529;-64
2023/05/12 09:46:23;;;;;;;7.03;4.77;;;18.00;37.50;;;;;;5078014;28;46462;-64
2023/05/12 09:48:49;;;;;;;7.80;5.30;;;17.80;37.10;;;;;;5077909;28;46437;-64
2023/05/12 09:51:17;;;;;;;10.30;6.20;;;17.90;36.80;;;;;;5076103;28;46290;-64
2023/05/12 09:53:45;;;;;;;5.80;4.57;;;17.80;37.50;;;;;;5077524;28;46580;-64
2023/05/12 09:56:15;;;;;;;6.23;4.43;;;17.70;37.70;;;;;;5078776;28;46380;-64
2023/05/12 09:58:43;;;;;;;6.20;4.60;;;17.50;37.30;;;;;;5078961;28;46399;-65
2023/05/12 10:01:17;;;;;;;5.60;4.20;;;17.40;37.80;;;;;;5075400;28;46460;-64
2023/05/12 10:03:46;;;;;;;5.20;3.40;;;17.30;38.00;;;;;;5074145;28;46898;-65
2023/05/12 10:06:15;;;;;;;5.47;4.13;;;17.00;38.00;;;;;;5076606;28;46604;-65
2023/05/12 10:08:46;;;;;;;11.00;4.03;;;16.80;39.10;;;;;;5076735;28;46334;-64
2023/05/12 10:11:12;;;;;;;6.90;4.30;;;16.50;39.40;;;;;;5075726;28;46419;-64
2023/05/12 10:13:38;;;;;;;5.80;4.03;;;16.10;40.30;;;;;;5079547;28;46471;-64
2023/05/12 10:16:05;;;;;;;5.50;4.17;;;15.90;41.10;;;;;;5077676;28;48116;-65
2023/05/12 10:18:33;;;;;;;7.63;4.27;;;15.70;41.60;;;;;;5077201;28;46435;-65
2023/05/12 10:21:00;;;;;;;5.70;4.10;;;15.50;41.90;;;;;;5077964;28;46362;-65
2023/05/12 10:23:27;;;;;;;7.10;4.77;;;15.30;42.10;;;;;;5076427;28;45961;-65
2023/05/12 10:26:00;;;;;;;8.33;4.23;;;15.10;43.10;;;;;;5076948;28;46636;-65
2023/05/12 10:28:27;;;;;;;4.90;3.63;;;15.00;43.00;;;;;;5078184;28;46439;-63
2023/05/12 10:30:59;;;;;;;6.13;4.50;;;14.90;43.60;;;;;;5079927;28;46268;-64
2023/05/12 10:33:26;;;;;;;7.33;4.40;;;14.80;44.50;;;;;;5077494;28;46365;-64
2023/05/12 10:35:52;;;;;;;5.13;3.90;;;14.60;45.30;;;;;;5076801;28;46667;-65
2023/05/12 10:38:21;;;;;;;5.63;3.87;;;14.50;46.10;;;;;;5078187;28;45794;-64
2023/05/12 10:40:54;;;;;;;5.37;3.70;;;14.50;46.00;;;;;;5079428;28;46448;-64
2023/05/12 10:43:24;;;;;;;5.77;4.10;;;14.60;46.10;;;;;;5075861;28;46448;-64
2023/05/12 10:46:26;;;;;;;5.60;4.00;;;14.60;46.10;;;;;;5077055;28;46349;-63
2023/05/12 10:49:08;;;;;;;4.93;3.47;;;14.60;46.10;;;;;;5014050;28;45982;-63
2023/05/12 10:51:48;;;;;;;4.43;2.90;;;14.70;46.10;;;;;;5071269;28;46555;-63
2023/05/12 10:54:24;;;;;;;5.20;3.70;;;14.70;45.70;;;;;;5075876;28;46443;-64
2023/05/12 10:56:50;;;;;;;5.20;3.77;;;14.70;45.90;;;;;;5076627;28;46290;-63
2023/05/12 10:59:18;;;;;;;5.20;3.70;;;14.90;45.80;;;;;;5074748;28;46330;-64
2023/05/12 11:02:13;;;;;;;7.97;3.77;;;14.90;45.40;;;;;;5075888;28;46383;-64
2023/05/12 11:04:40;;;;;;;5.30;3.70;;;14.90;45.40;;;;;;5078569;28;46427;-65
2023/05/12 11:07:09;;;;;;;5.97;3.50;;;15.10;45.10;;;;;;5074642;28;47056;-64
2023/05/12 11:09:37;;;;;;;6.47;3.73;;;15.30;44.80;;;;;;5077584;28;46512;-64
2023/05/12 11:12:04;;;;;;;4.40;3.30;;;15.40;43.80;;;;;;5077400;28;46415;-64
2023/05/12 11:14:30;;;;;;;4.03;2.90;;;15.50;43.50;;;;;;5075368;28;46425;-65
2023/05/12 11:16:56;;;;;;;4.60;3.20;;;15.60;43.60;;;;;;5077379;28;46416;-64
2023/05/12 11:19:21;;;;;;;6.70;3.17;;;15.70;43.80;;;;;;5076769;28;46615;-64
2023/05/12 11:21:47;;;;;;;10.23;3.67;;;15.80;43.80;;;;;;5076337;28;46553;-65
2023/05/12 11:24:13;;;;;;;4.10;3.00;;;15.90;43.80;;;;;;5077633;28;46617;-64
2023/05/12 11:26:40;;;;;;;4.77;3.00;;;16.10;43.50;;;;;;5081343;28;46445;-64
2023/05/12 11:29:06;;;;;;;4.40;2.73;;;16.00;42.90;;;;;;5079025;28;46466;-64
2023/05/12 11:31:31;;;;;;;4.60;3.10;;;15.90;43.90;;;;;;5081772;28;46181;-64
2023/05/12 11:34:06;;;;;;;5.40;2.70;;;15.90;43.20;;;;;;5080257;28;45886;-64
2023/05/12 11:36:39;;;;;;;4.47;3.00;;;15.80;42.60;;;;;;5079482;28;46459;-64
2023/05/12 11:39:05;;;;;;;3.67;2.53;;;15.80;43.90;;;;;;5080828;28;46304;-64
2023/05/12 11:41:32;;;;;;;4.33;2.97;;;15.80;43.30;;;;;;5079426;28;46457;-65
2023/05/12 11:43:57;;;;;;;4.90;3.10;;;15.80;43.30;;;;;;5080906;28;46419;-65
2023/05/12 11:46:25;;;;;;;5.20;3.63;;;15.80;43.60;;;;;;5078547;28;47228;-64
2023/05/12 11:48:58;;;;;;;4.53;3.20;;;16.10;42.70;;;;;;5077044;28;46400;-65
2023/05/12 11:51:25;;;;;;;4.40;2.70;;;16.20;42.20;;;;;;5078978;28;46372;-64
2023/05/12 11:53:54;;;;;;;6.57;2.97;;;16.40;41.80;;;;;;5081924;28;46358;-63
2023/05/12 11:56:22;;;;;;;7.03;3.80;;;16.60;41.40;;;;;;5078726;28;47311;-65
2023/05/12 11:58:56;;;;;;;3.80;2.80;;;16.80;40.60;;;;;;5077833;28;46478;-64
2023/05/12 12:01:23;;;;;;;5.20;3.47;;;17.00;40.40;;;;;;5078678;28;45944;-65
2023/05/12 12:03:50;;;;;;;5.07;3.33;;;16.90;40.80;;;;;;5081612;28;46500;-65
2023/05/12 12:06:17;;;;;;;7.40;2.67;;;16.90;40.90;;;;;;5081372;28;46413;-64
2023/05/12 12:08:50;;;;;;;5.17;3.00;;;16.90;40.80;;;;;;5081289;28;46386;-65
2023/05/12 12:11:21;;;;;;;6.57;2.67;;;16.80;39.40;;;;;;5079695;28;46369;-64
2023/05/12 12:13:51;;;;;;;8.90;4.23;;;16.80;41.30;;;;;;5078811;28;46399;-64
2023/05/12 12:16:17;;;;;;;8.90;3.10;;;17.10;39.80;;;;;;5080078;28;46417;-64
2023/05/12 12:18:42;;;;;;;6.87;3.17;;;17.00;38.70;;;;;;5083328;28;46460;-64
2023/05/12 12:21:08;;;;;;;8.03;2.93;;;17.00;39.30;;;;;;5079155;28;46045;-64
2023/05/12 12:23:34;;;;;;;7.73;2.90;;;16.90;39.80;;;;;;5078124;28;46402;-64
2023/05/12 12:26:00;;;;;;;6.20;2.27;;;16.70;39.40;;;;;;5081578;28;46176;-64
2023/05/12 12:28:25;;;;;;;6.07;2.50;;;16.90;39.50;;;;;;5081119;28;46446;-64
2023/05/12 12:30:51;;;;;;;4.83;2.87;;;17.00;39.30;;;;;;5081576;28;46282;-64
2023/05/12 12:33:17;;;;;;;4.50;3.00;;;17.30;38.80;;;;;;5080201;28;46550;-64
2023/05/12 12:35:42;;;;;;;4.33;2.70;;;17.20;37.50;;;;;;5076526;27;46967;-64
2023/05/12 12:38:08;;;;;;;4.63;2.27;;;17.20;37.70;;;;;;5079776;28;46338;-64
2023/05/12 12:40:33;;;;;;;3.83;2.73;;;17.20;38.20;;;;;;5080954;28;46410;-64
2023/05/12 12:42:59;;;;;;;3.97;2.63;;;17.10;38.40;;;;;;5080372;28;46464;-64